sensor_id;sensor_type;location;lat;lon;timestamp;P1;durP1;ratioP1;P2;durP2;ratioP2
59074;SDS011;44860;53.020;6.738;2022-08-07T00:00:40;9.07;;;5.45;;
59074;SDS011;44860;53.020;6.738;2022-08-07T00:03:06;7.18;;;5.47;;
59074;SDS011;44860;53.020;6.738;2022-08-07T00:05:33;8.98;;;5.50;;
59074;SDS011;44860;53.020;6.738;2022-08-07T00:07:59;7.68;;;5.18;;
59074;SDS011;44860;53.020;6.738;2022-08-07T00:10:24;7.88;;;5.57;;
59074;SDS011;44860;53.020;6.738;2022-08-07T00:12:50;6.75;;;4.95;;
59074;SDS011;44860;53.020;6.738;2022-08-07T00:15:16;6.50;;;5.30;;
59074;SDS011;44860;53.020;6.738;2022-08-07T00:17:41;7.32;;;5.18;;
59074;SDS011;44860;53.020;6.738;2022-08-07T00:20:08;7.60;;;5.95;;
59074;SDS011;44860;53.020;6.738;2022-08-07T00:22:34;8.00;;;5.68;;
59074;SDS011;44860;53.020;6.738;2022-08-07T00:25:02;7.15;;;5.47;;
59074;SDS011;44860;53.020;6.738;2022-08-07T00:27:28;7.82;;;5.60;;
59074;SDS011;44860;53.020;6.738;2022-08-07T00:29:54;7.38;;;5.30;;
59074;SDS011;44860;53.020;6.738;2022-08-07T00:32:19;6.90;;;5.10;;
59074;SDS011;44860;53.020;6.738;2022-08-07T00:34:45;6.07;;;5.18;;
59074;SDS011;44860;53.020;6.738;2022-08-07T00:37:13;7.03;;;5.28;;
59074;SDS011;44860;53.020;6.738;2022-08-07T00:39:40;6.80;;;5.03;;
59074;SDS011;44860;53.020;6.738;2022-08-07T00:42:05;7.05;;;4.80;;
59074;SDS011;44860;53.020;6.738;2022-08-07T00:44:34;6.63;;;4.93;;
59074;SDS011;44860;53.020;6.738;2022-08-07T00:47:01;7.07;;;4.97;;
59074;SDS011;44860;53.020;6.738;2022-08-07T00:49:28;7.90;;;5.20;;
59074;SDS011;44860;53.020;6.738;2022-08-07T00:51:53;5.88;;;5.07;;
59074;SDS011;44860;53.020;6.738;2022-08-07T00:54:19;6.97;;;5.60;;
59074;SDS011;44860;53.020;6.738;2022-08-07T00:56:45;7.55;;;5.78;;
59074;SDS011;44860;53.020;6.738;2022-08-07T00:59:11;6.63;;;5.30;;
59074;SDS011;44860;53.020;6.738;2022-08-07T01:01:37;6.63;;;5.30;;
59074;SDS011;44860;53.020;6.738;2022-08-07T01:04:03;9.25;;;5.28;;
59074;SDS011;44860;53.020;6.738;2022-08-07T01:06:31;7.50;;;5.85;;
59074;SDS011;44860;53.020;6.738;2022-08-07T01:08:57;6.47;;;5.53;;
59074;SDS011;44860;53.020;6.738;2022-08-07T01:11:24;8.25;;;5.70;;
59074;SDS011;44860;53.020;6.738;2022-08-07T01:13:50;8.32;;;5.28;;
59074;SDS011;44860;53.020;6.738;2022-08-07T01:16:16;8.90;;;5.78;;
59074;SDS011;44860;53.020;6.738;2022-08-07T01:18:42;8.73;;;5.97;;
59074;SDS011;44860;53.020;6.738;2022-08-07T01:21:18;7.85;;;5.93;;
59074;SDS011;44860;53.020;6.738;2022-08-07T01:23:45;8.88;;;6.20;;
59074;SDS011;44860;53.020;6.738;2022-08-07T01:26:13;6.90;;;5.68;;
59074;SDS011;44860;53.020;6.738;2022-08-07T01:28:43;7.10;;;5.50;;
59074;SDS011;44860;53.020;6.738;2022-08-07T01:31:10;8.27;;;5.63;;
59074;SDS011;44860;53.020;6.738;2022-08-07T01:33:36;9.30;;;5.97;;
59074;SDS011;44860;53.020;6.738;2022-08-07T01:36:02;8.27;;;5.80;;
59074;SDS011;44860;53.020;6.738;2022-08-07T01:38:29;7.78;;;6.20;;
59074;SDS011;44860;53.020;6.738;2022-08-07T01:40:58;6.93;;;5.72;;
59074;SDS011;44860;53.020;6.738;2022-08-07T01:43:25;8.85;;;5.20;;
59074;SDS011;44860;53.020;6.738;2022-08-07T01:45:52;8.77;;;6.18;;
59074;SDS011;44860;53.020;6.738;2022-08-07T01:48:19;7.10;;;5.45;;
59074;SDS011;44860;53.020;6.738;2022-08-07T01:50:46;7.00;;;5.97;;
59074;SDS011;44860;53.020;6.738;2022-08-07T01:53:17;8.68;;;6.25;;
59074;SDS011;44860;53.020;6.738;2022-08-07T01:55:46;7.15;;;5.50;;
59074;SDS011;44860;53.020;6.738;2022-08-07T01:58:16;7.65;;;5.38;;
59074;SDS011;44860;53.020;6.738;2022-08-07T02:00:46;8.70;;;5.50;;
59074;SDS011;44860;53.020;6.738;2022-08-07T02:03:17;7.20;;;5.70;;
59074;SDS011;44860;53.020;6.738;2022-08-07T02:05:46;10.23;;;6.50;;
59074;SDS011;44860;53.020;6.738;2022-08-07T02:08:21;8.27;;;5.72;;
59074;SDS011;44860;53.020;6.738;2022-08-07T02:10:48;8.85;;;6.38;;
59074;SDS011;44860;53.020;6.738;2022-08-07T02:13:19;7.03;;;5.80;;
59074;SDS011;44860;53.020;6.738;2022-08-07T02:15:48;7.97;;;5.60;;
59074;SDS011;44860;53.020;6.738;2022-08-07T02:18:15;7.05;;;6.20;;
59074;SDS011;44860;53.020;6.738;2022-08-07T02:20:42;7.18;;;5.82;;
59074;SDS011;44860;53.020;6.738;2022-08-07T02:23:09;8.68;;;5.95;;
59074;SDS011;44860;53.020;6.738;2022-08-07T02:25:38;7.50;;;5.95;;
59074;SDS011;44860;53.020;6.738;2022-08-07T02:28:04;9.45;;;6.28;;
59074;SDS011;44860;53.020;6.738;2022-08-07T02:30:30;7.07;;;5.65;;
59074;SDS011;44860;53.020;6.738;2022-08-07T02:32:59;8.15;;;5.80;;
59074;SDS011;44860;53.020;6.738;2022-08-07T02:35:26;9.02;;;6.20;;
59074;SDS011;44860;53.020;6.738;2022-08-07T02:37:53;8.07;;;5.63;;
59074;SDS011;44860;53.020;6.738;2022-08-07T02:40:21;8.93;;;5.63;;
59074;SDS011;44860;53.020;6.738;2022-08-07T02:42:48;9.43;;;6.00;;
59074;SDS011;44860;53.020;6.738;2022-08-07T02:45:15;6.95;;;5.80;;
59074;SDS011;44860;53.020;6.738;2022-08-07T02:47:42;8.02;;;5.95;;
59074;SDS011;44860;53.020;6.738;2022-08-07T02:50:08;6.55;;;5.47;;
59074;SDS011;44860;53.020;6.738;2022-08-07T02:52:40;7.15;;;5.80;;
59074;SDS011;44860;53.020;6.738;2022-08-07T02:55:14;6.95;;;5.75;;
59074;SDS011;44860;53.020;6.738;2022-08-07T02:57:45;7.07;;;5.50;;
59074;SDS011;44860;53.020;6.738;2022-08-07T03:00:13;6.38;;;5.32;;
59074;SDS011;44860;53.020;6.738;2022-08-07T03:02:40;7.75;;;5.65;;
59074;SDS011;44860;53.020;6.738;2022-08-07T03:05:09;7.90;;;5.13;;
59074;SDS011;44860;53.020;6.738;2022-08-07T03:07:36;7.05;;;5.82;;
59074;SDS011;44860;53.020;6.738;2022-08-07T03:10:03;7.93;;;5.53;;
59074;SDS011;44860;53.020;6.738;2022-08-07T03:12:29;8.05;;;5.22;;
59074;SDS011;44860;53.020;6.738;2022-08-07T03:14:56;6.22;;;5.20;;
59074;SDS011;44860;53.020;6.738;2022-08-07T03:17:23;6.63;;;5.25;;
59074;SDS011;44860;53.020;6.738;2022-08-07T03:19:49;7.10;;;5.20;;
59074;SDS011;44860;53.020;6.738;2022-08-07T03:22:16;6.72;;;5.28;;
59074;SDS011;44860;53.020;6.738;2022-08-07T03:24:43;6.97;;;5.45;;
59074;SDS011;44860;53.020;6.738;2022-08-07T03:27:09;7.40;;;5.50;;
59074;SDS011;44860;53.020;6.738;2022-08-07T03:29:44;7.22;;;5.68;;
59074;SDS011;44860;53.020;6.738;2022-08-07T03:32:11;8.13;;;5.70;;
59074;SDS011;44860;53.020;6.738;2022-08-07T03:34:38;9.23;;;5.40;;
59074;SDS011;44860;53.020;6.738;2022-08-07T03:37:07;8.50;;;5.45;;
59074;SDS011;44860;53.020;6.738;2022-08-07T03:39:34;8.23;;;5.63;;
59074;SDS011;44860;53.020;6.738;2022-08-07T03:42:02;7.22;;;5.35;;
59074;SDS011;44860;53.020;6.738;2022-08-07T03:44:30;7.30;;;5.90;;
59074;SDS011;44860;53.020;6.738;2022-08-07T03:46:57;7.20;;;5.80;;
59074;SDS011;44860;53.020;6.738;2022-08-07T03:49:24;7.35;;;5.53;;
59074;SDS011;44860;53.020;6.738;2022-08-07T03:51:50;7.93;;;5.57;;
59074;SDS011;44860;53.020;6.738;2022-08-07T03:54:17;6.63;;;5.30;;
59074;SDS011;44860;53.020;6.738;2022-08-07T03:56:43;6.30;;;5.40;;
59074;SDS011;44860;53.020;6.738;2022-08-07T03:59:10;7.07;;;5.68;;
59074;SDS011;44860;53.020;6.738;2022-08-07T04:01:42;8.23;;;5.85;;
59074;SDS011;44860;53.020;6.738;2022-08-07T04:04:08;8.68;;;5.63;;
59074;SDS011;44860;53.020;6.738;2022-08-07T04:06:37;7.45;;;5.43;;
59074;SDS011;44860;53.020;6.738;2022-08-07T04:09:07;9.00;;;5.60;;
59074;SDS011;44860;53.020;6.738;2022-08-07T04:11:33;7.53;;;4.95;;
59074;SDS011;44860;53.020;6.738;2022-08-07T04:14:01;9.57;;;5.80;;
59074;SDS011;44860;53.020;6.738;2022-08-07T04:16:27;6.95;;;5.00;;
59074;SDS011;44860;53.020;6.738;2022-08-07T04:18:53;6.93;;;4.70;;
59074;SDS011;44860;53.020;6.738;2022-08-07T04:21:19;5.97;;;5.07;;
59074;SDS011;44860;53.020;6.738;2022-08-07T04:23:46;7.15;;;5.78;;
59074;SDS011;44860;53.020;6.738;2022-08-07T04:26:13;7.82;;;5.25;;
59074;SDS011;44860;53.020;6.738;2022-08-07T04:28:39;7.43;;;5.53;;
59074;SDS011;44860;53.020;6.738;2022-08-07T04:31:05;6.32;;;5.15;;
59074;SDS011;44860;53.020;6.738;2022-08-07T04:33:31;8.02;;;5.63;;
59074;SDS011;44860;53.020;6.738;2022-08-07T04:35:57;7.45;;;5.53;;
59074;SDS011;44860;53.020;6.738;2022-08-07T04:38:23;8.80;;;5.95;;
59074;SDS011;44860;53.020;6.738;2022-08-07T04:40:50;7.65;;;6.20;;
59074;SDS011;44860;53.020;6.738;2022-08-07T04:43:16;8.70;;;6.00;;
59074;SDS011;44860;53.020;6.738;2022-08-07T04:46:09;9.73;;;6.55;;
59074;SDS011;44860;53.020;6.738;2022-08-07T04:51:52;8.43;;;6.30;;
59074;SDS011;44860;53.020;6.738;2022-08-07T04:57:35;12.15;;;6.50;;
59074;SDS011;44860;53.020;6.738;2022-08-07T05:00:20;8.88;;;6.50;;
59074;SDS011;44860;53.020;6.738;2022-08-07T05:03:33;8.50;;;6.93;;
59074;SDS011;44860;53.020;6.738;2022-08-07T05:06:05;9.32;;;7.20;;
59074;SDS011;44860;53.020;6.738;2022-08-07T05:14:09;9.07;;;6.95;;
59074;SDS011;44860;53.020;6.738;2022-08-07T05:16:56;10.60;;;6.82;;
59074;SDS011;44860;53.020;6.738;2022-08-07T05:19:26;10.00;;;7.10;;
59074;SDS011;44860;53.020;6.738;2022-08-07T05:21:58;8.57;;;6.43;;
59074;SDS011;44860;53.020;6.738;2022-08-07T05:24:25;9.15;;;7.32;;
59074;SDS011;44860;53.020;6.738;2022-08-07T05:26:54;9.23;;;6.95;;
59074;SDS011;44860;53.020;6.738;2022-08-07T05:29:22;9.05;;;7.05;;
59074;SDS011;44860;53.020;6.738;2022-08-07T05:31:49;8.52;;;6.72;;
59074;SDS011;44860;53.020;6.738;2022-08-07T05:34:16;8.73;;;6.88;;
59074;SDS011;44860;53.020;6.738;2022-08-07T05:36:50;10.30;;;7.50;;
59074;SDS011;44860;53.020;6.738;2022-08-07T05:39:18;10.15;;;7.13;;
59074;SDS011;44860;53.020;6.738;2022-08-07T05:41:46;10.77;;;7.95;;
59074;SDS011;44860;53.020;6.738;2022-08-07T05:44:13;11.32;;;8.18;;
59074;SDS011;44860;53.020;6.738;2022-08-07T05:46:44;9.93;;;7.63;;
59074;SDS011;44860;53.020;6.738;2022-08-07T05:49:12;9.25;;;7.93;;
59074;SDS011;44860;53.020;6.738;2022-08-07T05:51:38;9.88;;;8.18;;
59074;SDS011;44860;53.020;6.738;2022-08-07T05:54:05;12.80;;;8.82;;
59074;SDS011;44860;53.020;6.738;2022-08-07T05:56:31;11.85;;;9.45;;
59074;SDS011;44860;53.020;6.738;2022-08-07T05:58:59;15.85;;;10.55;;
59074;SDS011;44860;53.020;6.738;2022-08-07T06:01:27;13.30;;;10.98;;
59074;SDS011;44860;53.020;6.738;2022-08-07T06:03:54;16.55;;;11.93;;
59074;SDS011;44860;53.020;6.738;2022-08-07T06:06:21;13.77;;;11.35;;
59074;SDS011;44860;53.020;6.738;2022-08-07T06:08:48;16.02;;;12.20;;
59074;SDS011;44860;53.020;6.738;2022-08-07T06:11:14;15.93;;;12.32;;
59074;SDS011;44860;53.020;6.738;2022-08-07T06:13:40;14.65;;;11.88;;
59074;SDS011;44860;53.020;6.738;2022-08-07T06:16:07;18.13;;;12.63;;
59074;SDS011;44860;53.020;6.738;2022-08-07T06:18:33;15.07;;;12.25;;
59074;SDS011;44860;53.020;6.738;2022-08-07T06:20:59;15.68;;;12.35;;
59074;SDS011;44860;53.020;6.738;2022-08-07T06:23:26;16.48;;;12.13;;
59074;SDS011;44860;53.020;6.738;2022-08-07T06:25:52;13.43;;;11.45;;
59074;SDS011;44860;53.020;6.738;2022-08-07T06:28:19;14.25;;;12.38;;
59074;SDS011;44860;53.020;6.738;2022-08-07T06:30:45;13.38;;;11.00;;
59074;SDS011;44860;53.020;6.738;2022-08-07T06:33:11;13.52;;;11.80;;
59074;SDS011;44860;53.020;6.738;2022-08-07T06:35:36;12.65;;;10.98;;
59074;SDS011;44860;53.020;6.738;2022-08-07T06:38:02;15.50;;;11.63;;
59074;SDS011;44860;53.020;6.738;2022-08-07T06:40:29;11.77;;;10.15;;
59074;SDS011;44860;53.020;6.738;2022-08-07T06:42:59;12.90;;;10.45;;
59074;SDS011;44860;53.020;6.738;2022-08-07T06:45:28;12.15;;;9.57;;
59074;SDS011;44860;53.020;6.738;2022-08-07T06:47:54;11.13;;;9.02;;
59074;SDS011;44860;53.020;6.738;2022-08-07T06:50:20;11.85;;;9.40;;
59074;SDS011;44860;53.020;6.738;2022-08-07T06:52:46;10.38;;;8.10;;
59074;SDS011;44860;53.020;6.738;2022-08-07T06:55:18;10.48;;;8.30;;
59074;SDS011;44860;53.020;6.738;2022-08-07T06:57:48;13.52;;;8.50;;
59074;SDS011;44860;53.020;6.738;2022-08-07T07:00:16;11.77;;;8.60;;
59074;SDS011;44860;53.020;6.738;2022-08-07T07:02:43;11.60;;;9.07;;
59074;SDS011;44860;53.020;6.738;2022-08-07T07:05:10;9.55;;;7.68;;
59074;SDS011;44860;53.020;6.738;2022-08-07T07:07:36;12.23;;;8.20;;
59074;SDS011;44860;53.020;6.738;2022-08-07T07:10:02;8.82;;;6.55;;
59074;SDS011;44860;53.020;6.738;2022-08-07T07:17:49;10.48;;;7.00;;
59074;SDS011;44860;53.020;6.738;2022-08-07T07:20:23;9.18;;;6.60;;
59074;SDS011;44860;53.020;6.738;2022-08-07T07:22:51;9.07;;;6.30;;
59074;SDS011;44860;53.020;6.738;2022-08-07T07:25:19;6.07;;;5.18;;
59074;SDS011;44860;53.020;6.738;2022-08-07T07:27:50;5.00;;;4.28;;
59074;SDS011;44860;53.020;6.738;2022-08-07T07:30:25;4.95;;;3.30;;
59074;SDS011;44860;53.020;6.738;2022-08-07T07:32:56;4.03;;;2.90;;
59074;SDS011;44860;53.020;6.738;2022-08-07T07:35:25;5.10;;;3.22;;
59074;SDS011;44860;53.020;6.738;2022-08-07T07:37:51;4.68;;;3.55;;
59074;SDS011;44860;53.020;6.738;2022-08-07T07:40:19;4.60;;;3.33;;
59074;SDS011;44860;53.020;6.738;2022-08-07T07:42:46;5.65;;;3.80;;
59074;SDS011;44860;53.020;6.738;2022-08-07T07:45:17;4.63;;;3.25;;
59074;SDS011;44860;53.020;6.738;2022-08-07T07:47:44;3.67;;;2.92;;
59074;SDS011;44860;53.020;6.738;2022-08-07T07:50:12;5.07;;;3.10;;
59074;SDS011;44860;53.020;6.738;2022-08-07T07:52:43;3.97;;;3.00;;
59074;SDS011;44860;53.020;6.738;2022-08-07T07:55:09;4.35;;;3.20;;
59074;SDS011;44860;53.020;6.738;2022-08-07T07:57:37;5.22;;;3.60;;
59074;SDS011;44860;53.020;6.738;2022-08-07T08:00:05;5.40;;;3.28;;
59074;SDS011;44860;53.020;6.738;2022-08-07T08:02:32;6.93;;;3.72;;
59074;SDS011;44860;53.020;6.738;2022-08-07T08:05:02;16.23;;;14.52;;
59074;SDS011;44860;53.020;6.738;2022-08-07T08:07:32;13.88;;;12.38;;
59074;SDS011;44860;53.020;6.738;2022-08-07T08:10:00;7.45;;;6.60;;
59074;SDS011;44860;53.020;6.738;2022-08-07T08:12:28;6.47;;;4.03;;
59074;SDS011;44860;53.020;6.738;2022-08-07T08:14:55;6.00;;;3.88;;
59074;SDS011;44860;53.020;6.738;2022-08-07T08:17:21;5.57;;;3.63;;
59074;SDS011;44860;53.020;6.738;2022-08-07T08:19:48;5.30;;;3.53;;
59074;SDS011;44860;53.020;6.738;2022-08-07T08:22:16;4.13;;;3.40;;
59074;SDS011;44860;53.020;6.738;2022-08-07T08:25:03;5.00;;;3.50;;
59074;SDS011;44860;53.020;6.738;2022-08-07T08:27:49;5.32;;;3.20;;
59074;SDS011;44860;53.020;6.738;2022-08-07T08:30:18;5.70;;;3.13;;
59074;SDS011;44860;53.020;6.738;2022-08-07T08:32:46;4.35;;;3.38;;
59074;SDS011;44860;53.020;6.738;2022-08-07T08:35:17;6.63;;;3.47;;
59074;SDS011;44860;53.020;6.738;2022-08-07T08:37:46;5.78;;;3.70;;
59074;SDS011;44860;53.020;6.738;2022-08-07T08:40:13;5.07;;;3.30;;
59074;SDS011;44860;53.020;6.738;2022-08-07T08:42:48;4.43;;;3.20;;
59074;SDS011;44860;53.020;6.738;2022-08-07T08:48:38;4.72;;;3.40;;
59074;SDS011;44860;53.020;6.738;2022-08-07T08:51:24;4.35;;;3.40;;
59074;SDS011;44860;53.020;6.738;2022-08-07T08:56:39;2.95;;;2.65;;
59074;SDS011;44860;53.020;6.738;2022-08-07T09:13:40;4.20;;;2.70;;
59074;SDS011;44860;53.020;6.738;2022-08-07T09:16:21;4.50;;;3.03;;
59074;SDS011;44860;53.020;6.738;2022-08-07T09:27:23;3.53;;;2.50;;
59074;SDS011;44860;53.020;6.738;2022-08-07T09:30:07;3.58;;;2.47;;
59074;SDS011;44860;53.020;6.738;2022-08-07T09:35:33;26.98;;;23.83;;
59074;SDS011;44860;53.020;6.738;2022-08-07T09:43:59;4.97;;;2.30;;
59074;SDS011;44860;53.020;6.738;2022-08-07T09:53:14;4.55;;;2.63;;
59074;SDS011;44860;53.020;6.738;2022-08-07T09:55:17;4.50;;;2.30;;
59074;SDS011;44860;53.020;6.738;2022-08-07T10:15:03;5.43;;;3.10;;
59074;SDS011;44860;53.020;6.738;2022-08-07T10:20:48;4.55;;;2.70;;
59074;SDS011;44860;53.020;6.738;2022-08-07T10:23:23;4.10;;;2.42;;
59074;SDS011;44860;53.020;6.738;2022-08-07T10:26:23;3.75;;;2.60;;
59074;SDS011;44860;53.020;6.738;2022-08-07T10:29:08;4.15;;;2.60;;
59074;SDS011;44860;53.020;6.738;2022-08-07T10:37:18;2.97;;;2.40;;
59074;SDS011;44860;53.020;6.738;2022-08-07T10:43:00;3.25;;;2.60;;
59074;SDS011;44860;53.020;6.738;2022-08-07T10:45:38;2.53;;;2.33;;
59074;SDS011;44860;53.020;6.738;2022-08-07T10:48:21;11.60;;;10.38;;
59074;SDS011;44860;53.020;6.738;2022-08-07T10:50:50;14.45;;;11.60;;
59074;SDS011;44860;53.020;6.738;2022-08-07T10:53:27;3.85;;;2.33;;
59074;SDS011;44860;53.020;6.738;2022-08-07T11:04:32;3.38;;;2.17;;
59074;SDS011;44860;53.020;6.738;2022-08-07T11:09:33;3.55;;;2.20;;
59074;SDS011;44860;53.020;6.738;2022-08-07T11:12:05;3.08;;;2.13;;
59074;SDS011;44860;53.020;6.738;2022-08-07T11:14:48;3.17;;;2.00;;
59074;SDS011;44860;53.020;6.738;2022-08-07T11:17:42;4.85;;;2.20;;
59074;SDS011;44860;53.020;6.738;2022-08-07T11:20:18;4.25;;;2.10;;
59074;SDS011;44860;53.020;6.738;2022-08-07T11:28:09;3.03;;;2.60;;
59074;SDS011;44860;53.020;6.738;2022-08-07T11:33:28;4.68;;;2.30;;
59074;SDS011;44860;53.020;6.738;2022-08-07T11:38:46;3.08;;;2.13;;
59074;SDS011;44860;53.020;6.738;2022-08-07T11:41:21;3.08;;;2.50;;
59074;SDS011;44860;53.020;6.738;2022-08-07T11:49:41;2.60;;;2.38;;
59074;SDS011;44860;53.020;6.738;2022-08-07T11:52:25;2.78;;;2.10;;
59074;SDS011;44860;53.020;6.738;2022-08-07T11:57:43;3.08;;;2.22;;
59074;SDS011;44860;53.020;6.738;2022-08-07T12:00:18;3.33;;;1.90;;
59074;SDS011;44860;53.020;6.738;2022-08-07T12:11:26;2.90;;;2.13;;
59074;SDS011;44860;53.020;6.738;2022-08-07T12:14:07;3.63;;;1.75;;
59074;SDS011;44860;53.020;6.738;2022-08-07T12:16:55;2.95;;;1.70;;
59074;SDS011;44860;53.020;6.738;2022-08-07T12:19:44;3.38;;;1.73;;
59074;SDS011;44860;53.020;6.738;2022-08-07T12:22:21;3.72;;;1.70;;
59074;SDS011;44860;53.020;6.738;2022-08-07T12:24:50;2.85;;;2.38;;
59074;SDS011;44860;53.020;6.738;2022-08-07T12:27:48;10.10;;;8.23;;
59074;SDS011;44860;53.020;6.738;2022-08-07T12:30:27;3.75;;;2.53;;
59074;SDS011;44860;53.020;6.738;2022-08-07T12:33:11;2.80;;;1.77;;
59074;SDS011;44860;53.020;6.738;2022-08-07T12:35:43;1.92;;;1.70;;
59074;SDS011;44860;53.020;6.738;2022-08-07T12:38:11;5.88;;;4.50;;
59074;SDS011;44860;53.020;6.738;2022-08-07T12:40:38;6.05;;;4.32;;
59074;SDS011;44860;53.020;6.738;2022-08-07T12:43:07;2.60;;;1.92;;
59074;SDS011;44860;53.020;6.738;2022-08-07T12:48:35;2.38;;;1.73;;
59074;SDS011;44860;53.020;6.738;2022-08-07T12:51:27;1.85;;;1.55;;
59074;SDS011;44860;53.020;6.738;2022-08-07T12:57:04;2.17;;;1.75;;
59074;SDS011;44860;53.020;6.738;2022-08-07T12:59:30;3.63;;;1.80;;
59074;SDS011;44860;53.020;6.738;2022-08-07T13:10:47;3.13;;;1.67;;
59074;SDS011;44860;53.020;6.738;2022-08-07T13:16:21;2.85;;;1.73;;
59074;SDS011;44860;53.020;6.738;2022-08-07T13:21:25;2.00;;;1.60;;
59074;SDS011;44860;53.020;6.738;2022-08-07T13:24:06;3.67;;;1.52;;
59074;SDS011;44860;53.020;6.738;2022-08-07T13:27:18;2.60;;;1.70;;
59074;SDS011;44860;53.020;6.738;2022-08-07T13:29:48;3.10;;;1.30;;
59074;SDS011;44860;53.020;6.738;2022-08-07T13:32:29;3.53;;;1.50;;
59074;SDS011;44860;53.020;6.738;2022-08-07T13:40:24;1.90;;;1.70;;
59074;SDS011;44860;53.020;6.738;2022-08-07T13:43:05;2.88;;;1.42;;
59074;SDS011;44860;53.020;6.738;2022-08-07T13:45:34;1.48;;;1.38;;
59074;SDS011;44860;53.020;6.738;2022-08-07T13:48:04;1.63;;;1.50;;
59074;SDS011;44860;53.020;6.738;2022-08-07T13:50:32;2.35;;;1.35;;
59074;SDS011;44860;53.020;6.738;2022-08-07T13:53:00;1.80;;;1.40;;
59074;SDS011;44860;53.020;6.738;2022-08-07T13:55:27;1.98;;;1.60;;
59074;SDS011;44860;53.020;6.738;2022-08-07T13:57:58;3.30;;;1.70;;
59074;SDS011;44860;53.020;6.738;2022-08-07T14:00:49;3.17;;;1.77;;
59074;SDS011;44860;53.020;6.738;2022-08-07T14:03:18;2.22;;;1.48;;
59074;SDS011;44860;53.020;6.738;2022-08-07T14:05:53;3.08;;;1.95;;
59074;SDS011;44860;53.020;6.738;2022-08-07T14:08:24;2.22;;;1.80;;
59074;SDS011;44860;53.020;6.738;2022-08-07T14:10:53;2.40;;;1.95;;
59074;SDS011;44860;53.020;6.738;2022-08-07T14:13:25;2.10;;;1.60;;
59074;SDS011;44860;53.020;6.738;2022-08-07T14:15:54;2.72;;;1.80;;
59074;SDS011;44860;53.020;6.738;2022-08-07T14:18:31;2.22;;;1.65;;
59074;SDS011;44860;53.020;6.738;2022-08-07T14:21:11;2.55;;;1.80;;
59074;SDS011;44860;53.020;6.738;2022-08-07T14:23:43;2.65;;;1.60;;
59074;SDS011;44860;53.020;6.738;2022-08-07T14:26:13;2.92;;;1.80;;
59074;SDS011;44860;53.020;6.738;2022-08-07T14:28:44;2.75;;;1.75;;
59074;SDS011;44860;53.020;6.738;2022-08-07T14:31:12;2.10;;;1.83;;
59074;SDS011;44860;53.020;6.738;2022-08-07T14:33:40;3.45;;;2.00;;
59074;SDS011;44860;53.020;6.738;2022-08-07T14:36:08;5.28;;;4.30;;
59074;SDS011;44860;53.020;6.738;2022-08-07T14:38:35;3.08;;;2.50;;
59074;SDS011;44860;53.020;6.738;2022-08-07T14:41:04;5.50;;;4.40;;
59074;SDS011;44860;53.020;6.738;2022-08-07T14:43:37;2.63;;;2.03;;
59074;SDS011;44860;53.020;6.738;2022-08-07T14:46:04;3.00;;;1.88;;
59074;SDS011;44860;53.020;6.738;2022-08-07T14:48:33;3.00;;;2.35;;
59074;SDS011;44860;53.020;6.738;2022-08-07T14:51:04;2.47;;;1.90;;
59074;SDS011;44860;53.020;6.738;2022-08-07T14:53:35;17.17;;;2.65;;
59074;SDS011;44860;53.020;6.738;2022-08-07T14:56:04;4.15;;;2.50;;
59074;SDS011;44860;53.020;6.738;2022-08-07T14:58:33;4.63;;;2.10;;
59074;SDS011;44860;53.020;6.738;2022-08-07T15:01:01;3.10;;;1.90;;
59074;SDS011;44860;53.020;6.738;2022-08-07T15:03:28;2.20;;;2.00;;
59074;SDS011;44860;53.020;6.738;2022-08-07T15:05:56;3.72;;;2.20;;
59074;SDS011;44860;53.020;6.738;2022-08-07T15:08:25;3.78;;;2.50;;
59074;SDS011;44860;53.020;6.738;2022-08-07T15:13:23;3.72;;;2.38;;
59074;SDS011;44860;53.020;6.738;2022-08-07T15:15:52;6.80;;;3.97;;
59074;SDS011;44860;53.020;6.738;2022-08-07T15:18:36;9.50;;;5.32;;
59074;SDS011;44860;53.020;6.738;2022-08-07T15:21:06;3.67;;;2.63;;
59074;SDS011;44860;53.020;6.738;2022-08-07T15:23:39;4.00;;;2.30;;
59074;SDS011;44860;53.020;6.738;2022-08-07T15:26:09;2.88;;;2.17;;
59074;SDS011;44860;53.020;6.738;2022-08-07T15:28:39;5.07;;;2.95;;
59074;SDS011;44860;53.020;6.738;2022-08-07T15:31:09;3.10;;;2.10;;
59074;SDS011;44860;53.020;6.738;2022-08-07T15:33:40;3.85;;;2.15;;
59074;SDS011;44860;53.020;6.738;2022-08-07T15:36:07;3.70;;;2.30;;
59074;SDS011;44860;53.020;6.738;2022-08-07T15:38:37;5.55;;;2.40;;
59074;SDS011;44860;53.020;6.738;2022-08-07T15:41:10;5.10;;;2.22;;
59074;SDS011;44860;53.020;6.738;2022-08-07T15:43:44;7.50;;;5.35;;
59074;SDS011;44860;53.020;6.738;2022-08-07T15:46:26;3.35;;;2.78;;
59074;SDS011;44860;53.020;6.738;2022-08-07T15:48:54;3.22;;;1.90;;
59074;SDS011;44860;53.020;6.738;2022-08-07T15:51:22;2.70;;;2.05;;
59074;SDS011;44860;53.020;6.738;2022-08-07T15:53:52;2.60;;;1.83;;
59074;SDS011;44860;53.020;6.738;2022-08-07T15:56:20;2.47;;;2.05;;
59074;SDS011;44860;53.020;6.738;2022-08-07T15:58:54;4.25;;;2.15;;
59074;SDS011;44860;53.020;6.738;2022-08-07T16:04:12;4.25;;;2.15;;
59074;SDS011;44860;53.020;6.738;2022-08-07T16:17:38;2.42;;;1.88;;
59074;SDS011;44860;53.020;6.738;2022-08-07T16:34:06;6.40;;;2.10;;
59074;SDS011;44860;53.020;6.738;2022-08-07T17:01:59;4.93;;;2.63;;
59074;SDS011;44860;53.020;6.738;2022-08-07T17:04:36;3.63;;;2.40;;
59074;SDS011;44860;53.020;6.738;2022-08-07T17:12:15;3.67;;;2.08;;
59074;SDS011;44860;53.020;6.738;2022-08-07T17:17:34;3.45;;;2.35;;
59074;SDS011;44860;53.020;6.738;2022-08-07T17:20:32;5.78;;;2.15;;
59074;SDS011;44860;53.020;6.738;2022-08-07T17:25:46;5.22;;;2.47;;
59074;SDS011;44860;53.020;6.738;2022-08-07T17:28:30;3.85;;;2.70;;
59074;SDS011;44860;53.020;6.738;2022-08-07T17:31:09;3.92;;;2.80;;
59074;SDS011;44860;53.020;6.738;2022-08-07T17:33:39;4.28;;;2.50;;
59074;SDS011;44860;53.020;6.738;2022-08-07T17:36:17;3.00;;;2.70;;
59074;SDS011;44860;53.020;6.738;2022-08-07T17:44:27;5.55;;;2.40;;
59074;SDS011;44860;53.020;6.738;2022-08-07T17:47:13;2.85;;;2.28;;
59074;SDS011;44860;53.020;6.738;2022-08-07T18:00:15;7.63;;;3.20;;
59074;SDS011;44860;53.020;6.738;2022-08-07T18:08:02;7.40;;;3.30;;
59074;SDS011;44860;53.020;6.738;2022-08-07T18:13:45;6.32;;;3.35;;
59074;SDS011;44860;53.020;6.738;2022-08-07T18:19:08;9.13;;;3.90;;
59074;SDS011;44860;53.020;6.738;2022-08-07T18:21:46;9.32;;;3.92;;
59074;SDS011;44860;53.020;6.738;2022-08-07T18:35:25;9.35;;;3.85;;
59074;SDS011;44860;53.020;6.738;2022-08-07T18:58:55;10.23;;;5.30;;
59074;SDS011;44860;53.020;6.738;2022-08-07T19:04:11;5.50;;;3.40;;
59074;SDS011;44860;53.020;6.738;2022-08-07T19:12:07;9.20;;;3.20;;
59074;SDS011;44860;53.020;6.738;2022-08-07T19:23:44;6.35;;;3.22;;
59074;SDS011;44860;53.020;6.738;2022-08-07T19:26:12;6.78;;;3.70;;
59074;SDS011;44860;53.020;6.738;2022-08-07T19:28:41;8.45;;;3.45;;
59074;SDS011;44860;53.020;6.738;2022-08-07T19:31:21;7.85;;;3.50;;
59074;SDS011;44860;53.020;6.738;2022-08-07T19:33:50;8.60;;;3.65;;
59074;SDS011;44860;53.020;6.738;2022-08-07T19:36:19;7.82;;;3.72;;
59074;SDS011;44860;53.020;6.738;2022-08-07T19:38:52;9.82;;;3.60;;
59074;SDS011;44860;53.020;6.738;2022-08-07T19:41:20;6.60;;;3.50;;
59074;SDS011;44860;53.020;6.738;2022-08-07T19:43:48;9.00;;;3.40;;
59074;SDS011;44860;53.020;6.738;2022-08-07T19:46:23;4.97;;;3.25;;
59074;SDS011;44860;53.020;6.738;2022-08-07T19:49:01;6.03;;;3.38;;
59074;SDS011;44860;53.020;6.738;2022-08-07T19:51:40;7.30;;;3.05;;
59074;SDS011;44860;53.020;6.738;2022-08-07T19:54:07;7.55;;;3.70;;
59074;SDS011;44860;53.020;6.738;2022-08-07T19:56:34;5.40;;;3.20;;
59074;SDS011;44860;53.020;6.738;2022-08-07T19:59:33;8.73;;;3.38;;
59074;SDS011;44860;53.020;6.738;2022-08-07T20:01:58;8.27;;;3.35;;
59074;SDS011;44860;53.020;6.738;2022-08-07T20:04:33;7.90;;;3.30;;